Station Historical Data
Daily Summary for January 21, 2017 Units:  English    Metric   Both
Next Day »
Daily Weekly Monthly Yearly Custom
  High: Low: Average:
Temperature: 39.3 °F 35.8 °F 37.1 °F
Dew Point: 38.5 °F 34.8 °F 36.2 °F
Humidity: 97% 96% 96%
Wind Speed: 20.0mph 0.0mph 8mph
Wind Gust: 23.0mph - -
Wind- - South
Pressure: 29.99 in 29.54 in -
Precipitation: 0.00 in    
Historical Graphs
 
 
Tabular Data for January 21, 2017
Time Temperature Dew Point Pressure Wind Wind Speed Wind Gust Humidity Rainfall Rate (Hourly) solar Conditions
00:03 36.5 °F 35.5 °F 29.54 in SSE 11.0 mph 13.0 mph 96% 0.00 in 0.00 W/m2
00:08 36.5 °F 35.5 °F 29.54 in SSW 5.0 mph 14.0 mph 96% 0.00 in 0.00 W/m2
00:13 36.6 °F 35.6 °F 29.54 in SW 3.0 mph 10.0 mph 96% 0.00 in 0.00 W/m2
00:19 36.6 °F 35.6 °F 29.55 in SW 4.0 mph 13.0 mph 96% 0.00 in 0.00 W/m2
00:24 36.6 °F 35.6 °F 29.55 in SSW 9.0 mph 9.0 mph 96% 0.00 in 0.00 W/m2
00:29 36.6 °F 35.6 °F 29.55 in SSW 11.0 mph 17.0 mph 96% 0.00 in 0.00 W/m2
00:34 36.6 °F 35.6 °F 29.55 in South 11.0 mph 16.0 mph 96% 0.00 in 0.00 W/m2
00:39 36.6 °F 35.6 °F 29.56 in South 8.0 mph 9.0 mph 96% 0.00 in 0.00 W/m2
00:44 36.6 °F 35.6 °F 29.56 in South 8.0 mph 15.0 mph 96% 0.00 in 0.00 W/m2
00:49 36.6 °F 35.6 °F 29.56 in SSW 2.0 mph 13.0 mph 96% 0.00 in 0.00 W/m2
00:54 36.5 °F 35.5 °F 29.56 in SW 7.0 mph 9.0 mph 96% 0.00 in 0.00 W/m2
00:59 36.6 °F 35.6 °F 29.56 in Calm   11.0 mph 96% 0.00 in 0.00 W/m2
01:04 36.5 °F 35.5 °F 29.56 in SSW 3.0 mph 10.0 mph 96% 0.00 in 0.00 W/m2
01:09 36.5 °F 35.5 °F 29.56 in South 7.0 mph 9.0 mph 96% 0.00 in 0.00 W/m2
01:14 36.5 °F 35.5 °F 29.57 in SSW 5.0 mph 17.0 mph 96% 0.00 in 0.00 W/m2
01:19 36.5 °F 35.5 °F 29.57 in Calm   10.0 mph 96% 0.00 in 0.00 W/m2
01:24 36.4 °F 35.4 °F 29.58 in South 6.0 mph 12.0 mph 96% 0.00 in 0.00 W/m2
01:29 36.5 °F 35.5 °F 29.58 in South 5.0 mph 12.0 mph 96% 0.00 in 0.00 W/m2
01:34 36.4 °F 35.4 °F 29.58 in SSW 8.0 mph 14.0 mph 96% 0.00 in 0.00 W/m2
01:39 36.5 °F 35.5 °F 29.59 in SSW 7.0 mph 10.0 mph 96% 0.00 in 0.00 W/m2
01:44 36.5 °F 35.5 °F 29.59 in SSW 5.0 mph 12.0 mph 96% 0.00 in 0.00 W/m2
01:49 36.5 °F 35.5 °F 29.59 in SSW 7.0 mph 11.0 mph 96% 0.00 in 0.00 W/m2
01:54 36.5 °F 35.5 °F 29.60 in Calm   12.0 mph 96% 0.00 in 0.00 W/m2
01:59 36.5 °F 35.5 °F 29.60 in South 3.0 mph 12.0 mph 96% 0.00 in 0.00 W/m2
02:04 36.4 °F 35.4 °F 29.60 in South 10.0 mph 10.0 mph 96% 0.00 in 0.00 W/m2
02:09 36.4 °F 35.4 °F 29.60 in South 3.0 mph 11.0 mph 96% 0.00 in 0.00 W/m2
02:14 36.4 °F 35.4 °F 29.60 in SSW 5.0 mph 11.0 mph 96% 0.00 in 0.00 W/m2
02:19 36.4 °F 35.4 °F 29.61 in SW 11.0 mph 18.0 mph 96% 0.00 in 0.00 W/m2
02:24 36.4 °F 35.4 °F 29.61 in SSW 6.0 mph 15.0 mph 96% 0.00 in 0.00 W/m2
02:29 36.4 °F 35.4 °F 29.61 in SSE 5.0 mph 8.0 mph 96% 0.00 in 0.00 W/m2
02:34 36.4 °F 35.4 °F 29.61 in South 3.0 mph 14.0 mph 96% 0.00 in 0.00 W/m2
02:39 36.4 °F 35.4 °F 29.61 in SSW 8.0 mph 11.0 mph 96% 0.00 in 0.00 W/m2
02:44 36.4 °F 35.4 °F 29.62 in South 9.0 mph 11.0 mph 96% 0.00 in 0.00 W/m2
02:49 36.4 °F 35.4 °F 29.62 in South 4.0 mph 13.0 mph 96% 0.12 in 0.00 W/m2
02:54 36.3 °F 35.3 °F 29.61 in South 2.0 mph 15.0 mph 96% 0.12 in 0.00 W/m2
02:59 36.3 °F 35.3 °F 29.61 in South 8.0 mph 13.0 mph 96% 0.06 in 0.00 W/m2
03:04 36.3 °F 35.3 °F 29.61 in Calm   14.0 mph 96% 0.04 in 0.00 W/m2
03:09 36.3 °F 35.3 °F 29.61 in SSW 7.0 mph 20.0 mph 96% 0.00 in 0.00 W/m2
03:14 36.3 °F 35.3 °F 29.61 in Calm   17.0 mph 96% 0.00 in 0.00 W/m2
03:19 36.3 °F 35.3 °F 29.61 in SSW 8.0 mph 13.0 mph 96% 0.00 in 0.00 W/m2
03:24 36.4 °F 35.4 °F 29.62 in South 5.0 mph 15.0 mph 96% 0.04 in 0.00 W/m2
03:29 36.4 °F 35.4 °F 29.62 in SSW 5.0 mph 16.0 mph 96% 0.04 in 0.00 W/m2
03:34 36.5 °F 35.5 °F 29.62 in South 7.0 mph 12.0 mph 96% 0.04 in 0.00 W/m2
03:39 36.6 °F 35.6 °F 29.62 in South 6.0 mph 13.0 mph 96% 0.00 in 0.00 W/m2
03:44 36.6 °F 35.6 °F 29.62 in South 10.0 mph 13.0 mph 96% 0.00 in 0.00 W/m2
03:49 36.6 °F 35.6 °F 29.62 in South 10.0 mph 16.0 mph 96% 0.00 in 0.00 W/m2
03:54 36.6 °F 35.6 °F 29.62 in SSW 9.0 mph 15.0 mph 96% 0.00 in 0.00 W/m2
03:59 36.6 °F 35.6 °F 29.62 in Calm   14.0 mph 96% 0.00 in 0.00 W/m2
04:04 36.7 °F 35.7 °F 29.62 in SSE 10.0 mph 15.0 mph 96% 0.08 in 0.00 W/m2
04:09 36.6 °F 35.6 °F 29.63 in SSW 6.0 mph 11.0 mph 96% 0.16 in 0.00 W/m2
04:14 36.6 °F 35.6 °F 29.63 in SSW 9.0 mph 19.0 mph 96% 0.13 in 0.00 W/m2
04:19 36.5 °F 35.5 °F 29.64 in SSW 9.0 mph 16.0 mph 96% 0.08 in 0.00 W/m2
04:24 36.2 °F 35.2 °F 29.64 in South 11.0 mph 17.0 mph 96% 0.18 in 0.00 W/m2
04:30 36.1 °F 35.1 °F 29.64 in SSW 4.0 mph 19.0 mph 96% 0.10 in 0.00 W/m2
04:34 36.0 °F 35.0 °F 29.64 in SSW 9.0 mph 18.0 mph 96% 0.08 in 0.00 W/m2
04:40 36.0 °F 35.0 °F 29.65 in SSW 8.0 mph 16.0 mph 96% 0.08 in 0.00 W/m2
04:45 35.9 °F 34.9 °F 29.65 in SW 11.0 mph 18.0 mph 96% 0.12 in 0.00 W/m2
04:50 35.9 °F 34.9 °F 29.65 in SSE 5.0 mph 17.0 mph 96% 0.08 in 0.00 W/m2
04:55 35.8 °F 34.8 °F 29.66 in SSE 12.0 mph 13.0 mph 96% 0.08 in 0.00 W/m2
05:00 35.8 °F 34.8 °F 29.66 in South 3.0 mph 15.0 mph 96% 0.05 in 0.00 W/m2
05:05 35.9 °F 34.9 °F 29.66 in SSE 1.0 mph 15.0 mph 96% 0.04 in 0.00 W/m2
05:10 35.9 °F 34.9 °F 29.66 in Calm   13.0 mph 96% 0.00 in 0.00 W/m2
05:15 36.0 °F 35.0 °F 29.67 in SSE 8.0 mph 17.0 mph 96% 0.00 in 0.00 W/m2
05:20 36.1 °F 35.1 °F 29.67 in SSE 7.0 mph 18.0 mph 96% 0.08 in 0.00 W/m2
05:25 36.2 °F 35.2 °F 29.67 in SW 8.0 mph 20.0 mph 96% 0.13 in 0.00 W/m2
05:30 36.4 °F 35.4 °F 29.67 in SW 11.0 mph 17.0 mph 96% 0.07 in 0.00 W/m2
05:35 36.5 °F 35.5 °F 29.68 in SSW 14.0 mph 16.0 mph 96% 0.04 in 0.00 W/m2
05:40 36.6 °F 35.6 °F 29.69 in Calm   13.0 mph 96% 0.00 in 0.00 W/m2
05:45 36.6 °F 35.6 °F 29.69 in South 7.0 mph 13.0 mph 96% 0.00 in 0.00 W/m2
05:50 36.7 °F 35.7 °F 29.69 in South 10.0 mph 15.0 mph 96% 0.00 in 0.00 W/m2
05:55 36.8 °F 35.8 °F 29.70 in South 16.0 mph 19.0 mph 96% 0.00 in 0.00 W/m2
06:00 36.8 °F 35.8 °F 29.70 in SSW 13.0 mph 18.0 mph 96% 0.00 in 0.00 W/m2
06:05 36.8 °F 35.8 °F 29.70 in SSW 4.0 mph 18.0 mph 96% 0.00 in 0.00 W/m2
06:10 36.9 °F 35.9 °F 29.71 in South 4.0 mph 19.0 mph 96% 0.00 in 0.00 W/m2
06:15 36.9 °F 35.9 °F 29.71 in South 13.0 mph 16.0 mph 96% 0.00 in 0.00 W/m2
06:20 36.9 °F 35.9 °F 29.72 in South 10.0 mph 15.0 mph 96% 0.00 in 0.00 W/m2
06:25 36.9 °F 35.9 °F 29.72 in SSW 8.0 mph 19.0 mph 96% 0.00 in 0.00 W/m2
06:30 37.0 °F 36.0 °F 29.72 in SSE 8.0 mph 13.0 mph 96% 0.00 in 0.00 W/m2
06:35 37.0 °F 36.0 °F 29.72 in South 8.0 mph 17.0 mph 96% 0.00 in 0.00 W/m2
06:40 37.0 °F 36.0 °F 29.72 in SSW 12.0 mph 19.0 mph 96% 0.00 in 0.00 W/m2
06:45 37.0 °F 36.0 °F 29.72 in South 19.0 mph 19.0 mph 96% 0.00 in 0.00 W/m2
06:50 37.0 °F 36.0 °F 29.73 in SSW 15.0 mph 20.0 mph 96% 0.00 in 0.00 W/m2
06:55 37.0 °F 36.0 °F 29.73 in SW 3.0 mph 19.0 mph 96% 0.00 in 0.00 W/m2
07:00 37.0 °F 36.0 °F 29.74 in South 2.0 mph 19.0 mph 96% 0.04 in 0.00 W/m2
07:05 36.9 °F 35.9 °F 29.74 in South 4.0 mph 15.0 mph 96% 0.04 in 0.00 W/m2
07:10 36.8 °F 35.8 °F 29.75 in SSW 13.0 mph 17.0 mph 96% 0.16 in 0.00 W/m2
07:15 36.7 °F 35.7 °F 29.75 in South 5.0 mph 12.0 mph 96% 0.20 in 0.00 W/m2
07:20 36.5 °F 35.5 °F 29.75 in South 7.0 mph 15.0 mph 96% 0.10 in 0.00 W/m2
07:25 36.4 °F 35.4 °F 29.76 in SSW 5.0 mph 10.0 mph 96% 0.10 in 0.00 W/m2
07:30 36.3 °F 35.3 °F 29.77 in SW 9.0 mph 15.0 mph 96% 0.05 in 0.00 W/m2
07:35 36.3 °F 35.3 °F 29.77 in South 9.0 mph 13.0 mph 96% 0.04 in 0.00 W/m2
07:40 36.4 °F 35.4 °F 29.77 in SW 7.0 mph 18.0 mph 96% 0.04 in 0.00 W/m2
07:45 36.4 °F 35.4 °F 29.77 in South 10.0 mph 14.0 mph 96% 0.04 in 7.00 W/m2
07:51 36.5 °F 35.5 °F 29.78 in SSW 11.0 mph 17.0 mph 96% 0.00 in 7.00 W/m2
07:55 36.6 °F 35.6 °F 29.78 in South 4.0 mph 15.0 mph 96% 0.00 in 7.00 W/m2
08:01 36.6 °F 35.6 °F 29.78 in SSW 16.0 mph 16.0 mph 96% 0.12 in 12.00 W/m2
08:06 36.6 °F 35.6 °F 29.78 in SSW 6.0 mph 16.0 mph 96% 0.16 in 12.00 W/m2
08:11 36.6 °F 35.6 °F 29.79 in SSE 8.0 mph 15.0 mph 96% 0.10 in 18.00 W/m2
08:16 36.6 °F 35.6 °F 29.79 in Calm   18.0 mph 96% 0.10 in 12.00 W/m2
08:21 36.6 °F 35.6 °F 29.80 in South 7.0 mph 12.0 mph 96% 0.14 in 16.00 W/m2
08:26 36.6 °F 35.6 °F 29.80 in SW 11.0 mph 13.0 mph 96% 0.13 in 18.00 W/m2
08:31 36.6 °F 35.6 °F 29.81 in SW 10.0 mph 13.0 mph 96% 0.12 in 16.00 W/m2
08:36 36.6 °F 35.6 °F 29.81 in South 10.0 mph 12.0 mph 96% 0.06 in 12.00 W/m2
08:41 36.6 °F 35.6 °F 29.81 in Calm   12.0 mph 96% 0.04 in 14.00 W/m2
08:46 36.6 °F 35.6 °F 29.82 in SSE 10.0 mph 13.0 mph 96% 0.00 in 23.00 W/m2
08:51 36.6 °F 35.6 °F 29.82 in SSW 6.0 mph 13.0 mph 96% 0.00 in 21.00 W/m2
08:56 36.5 °F 35.5 °F 29.83 in South 6.0 mph 14.0 mph 96% 0.00 in 16.00 W/m2
09:01 36.5 °F 35.5 °F 29.83 in SSE 12.0 mph 12.0 mph 96% 0.05 in 21.00 W/m2
09:06 36.5 °F 35.5 °F 29.83 in SSE 6.0 mph 12.0 mph 96% 0.05 in 23.00 W/m2
09:11 36.4 °F 35.4 °F 29.83 in South 7.0 mph 11.0 mph 96% 0.07 in 25.00 W/m2
09:16 36.4 °F 35.4 °F 29.84 in SSW 4.0 mph 11.0 mph 96% 0.08 in 26.00 W/m2
09:21 36.3 °F 35.3 °F 29.84 in South 14.0 mph 15.0 mph 96% 0.13 in 42.00 W/m2
09:26 36.4 °F 35.4 °F 29.85 in SSW 6.0 mph 15.0 mph 96% 0.09 in 39.00 W/m2
09:31 36.3 °F 35.3 °F 29.85 in SSW 2.0 mph 2.0 mph 96% 0.08 in 33.00 W/m2
09:36 36.4 °F 35.4 °F 29.86 in SSW 4.0 mph 20.0 mph 96% 0.10 in 37.00 W/m2
09:41 36.4 °F 35.4 °F 29.86 in South 8.0 mph 13.0 mph 96% 0.07 in 44.00 W/m2
09:46 36.4 °F 35.4 °F 29.87 in SSW 4.0 mph 13.0 mph 96% 0.05 in 63.00 W/m2
09:51 36.4 °F 35.4 °F 29.87 in South 5.0 mph 11.0 mph 96% 0.05 in 60.00 W/m2
09:56 36.5 °F 35.5 °F 29.88 in SSE 8.0 mph 12.0 mph 96% 0.05 in 39.00 W/m2
10:01 36.6 °F 35.6 °F 29.88 in South 5.0 mph 12.0 mph 96% 0.04 in 33.00 W/m2
10:06 36.6 °F 35.6 °F 29.88 in SSE 10.0 mph 14.0 mph 96% 0.00 in 33.00 W/m2
10:11 36.7 °F 35.7 °F 29.88 in Calm   11.0 mph 96% 0.00 in 30.00 W/m2
10:16 36.7 °F 35.7 °F 29.88 in SSE 9.0 mph 13.0 mph 96% 0.00 in 40.00 W/m2
10:21 36.7 °F 35.7 °F 29.88 in South 13.0 mph 16.0 mph 96% 0.00 in 60.00 W/m2
10:26 36.8 °F 35.8 °F 29.88 in SSE 6.0 mph 14.0 mph 96% 0.09 in 37.00 W/m2
10:31 36.8 °F 35.8 °F 29.89 in SE 12.0 mph 15.0 mph 96% 0.07 in 44.00 W/m2
10:36 36.8 °F 35.8 °F 29.90 in SSE 6.0 mph 15.0 mph 96% 0.04 in 54.00 W/m2
10:41 36.8 °F 35.8 °F 29.90 in South 9.0 mph 14.0 mph 96% 0.00 in 42.00 W/m2
10:46 36.8 °F 35.8 °F 29.90 in SSE 9.0 mph 11.0 mph 96% 0.00 in 49.00 W/m2
10:51 36.9 °F 35.9 °F 29.90 in South 5.0 mph 17.0 mph 96% 0.00 in 47.00 W/m2
10:56 36.9 °F 35.9 °F 29.90 in South 8.0 mph 13.0 mph 96% 0.00 in 37.00 W/m2
11:01 37.0 °F 36.0 °F 29.90 in SSE 9.0 mph 12.0 mph 96% 0.00 in 42.00 W/m2
11:06 37.1 °F 36.1 °F 29.91 in SSW 9.0 mph 10.0 mph 96% 0.00 in 42.00 W/m2
11:11 37.1 °F 36.1 °F 29.91 in South 9.0 mph 14.0 mph 96% 0.00 in 51.00 W/m2
11:16 37.2 °F 36.2 °F 29.91 in South 12.0 mph 14.0 mph 96% 0.00 in 54.00 W/m2
11:21 37.3 °F 36.3 °F 29.92 in South 13.0 mph 18.0 mph 96% 0.00 in 134.00 W/m2
11:26 37.4 °F 36.4 °F 29.92 in South 9.0 mph 10.0 mph 96% 0.00 in 77.00 W/m2
11:31 37.5 °F 36.5 °F 29.92 in SSW 10.0 mph 13.0 mph 96% 0.00 in 39.00 W/m2
11:36 37.6 °F 36.6 °F 29.92 in SE 2.0 mph 7.0 mph 96% 0.00 in 60.00 W/m2
11:41 37.6 °F 36.8 °F 29.92 in SSE 12.0 mph 13.0 mph 97% 0.00 in 40.00 W/m2
11:46 37.7 °F 36.9 °F 29.92 in SE 8.0 mph 9.0 mph 97% 0.00 in 46.00 W/m2
11:51 37.7 °F 36.9 °F 29.92 in South 10.0 mph 16.0 mph 97% 0.00 in 62.00 W/m2
11:56 37.7 °F 36.9 °F 29.92 in South 10.0 mph 10.0 mph 97% 0.00 in 102.00 W/m2
12:01 37.7 °F 36.9 °F 29.92 in South 14.0 mph 16.0 mph 97% 0.00 in 91.00 W/m2
12:06 37.8 °F 37.0 °F 29.92 in SSE 7.0 mph 9.0 mph 97% 0.00 in 121.00 W/m2
12:11 37.9 °F 37.1 °F 29.92 in SSW 17.0 mph 17.0 mph 97% 0.00 in 81.00 W/m2
12:16 37.9 °F 36.9 °F 29.92 in SSW 13.0 mph 13.0 mph 96% 0.00 in 125.00 W/m2
12:21 38.0 °F 37.0 °F 29.92 in South 12.0 mph 13.0 mph 96% 0.00 in 67.00 W/m2
12:26 38.0 °F 37.0 °F 29.92 in South 6.0 mph 15.0 mph 96% 0.00 in 70.00 W/m2
12:31 38.0 °F 37.2 °F 29.92 in South 7.0 mph 8.0 mph 97% 0.00 in 60.00 W/m2
12:36 38.0 °F 37.2 °F 29.93 in SSW 10.0 mph 10.0 mph 97% 0.00 in 56.00 W/m2
12:41 38.0 °F 37.2 °F 29.93 in Calm     97% 0.00 in 56.00 W/m2
12:46 38.0 °F 37.2 °F 29.93 in SSE 7.0 mph 12.0 mph 97% 0.00 in 70.00 W/m2
12:51 38.0 °F 37.2 °F 29.93 in SSE 7.0 mph 11.0 mph 97% 0.00 in 84.00 W/m2
12:56 38.1 °F 37.3 °F 29.93 in SSE 14.0 mph 15.0 mph 97% 0.00 in 56.00 W/m2
13:01 38.2 °F 37.4 °F 29.93 in South 5.0 mph 11.0 mph 97% 0.00 in 53.00 W/m2
13:06 38.2 °F 37.4 °F 29.93 in SE 9.0 mph 10.0 mph 97% 0.00 in 35.00 W/m2
13:11 38.2 °F 37.4 °F 29.93 in SSE 7.0 mph 16.0 mph 97% 0.00 in 37.00 W/m2
13:16 38.3 °F 37.5 °F 29.93 in East 15.0 mph 16.0 mph 97% 0.00 in 54.00 W/m2
13:21 38.3 °F 37.5 °F 29.94 in South 9.0 mph 9.0 mph 97% 0.00 in 53.00 W/m2
13:26 38.3 °F 37.5 °F 29.94 in SSE 11.0 mph 16.0 mph 97% 0.00 in 74.00 W/m2
13:31 38.4 °F 37.6 °F 29.94 in South 16.0 mph 16.0 mph 97% 0.00 in 58.00 W/m2
13:36 38.4 °F 37.6 °F 29.94 in SSE 4.0 mph 10.0 mph 97% 0.00 in 69.00 W/m2
13:41 38.4 °F 37.6 °F 29.94 in SSE 5.0 mph 8.0 mph 97% 0.00 in 69.00 W/m2
13:46 38.4 °F 37.6 °F 29.94 in South 13.0 mph 14.0 mph 97% 0.10 in 62.00 W/m2
13:51 38.4 °F 37.6 °F 29.95 in South 15.0 mph 15.0 mph 97% 0.08 in 123.00 W/m2
13:56 38.4 °F 37.6 °F 29.95 in South 8.0 mph 13.0 mph 97% 0.05 in 171.00 W/m2
14:01 38.6 °F 37.8 °F 29.95 in SSE 6.0 mph 8.0 mph 97% 0.00 in 255.00 W/m2
14:07 38.8 °F 38.0 °F 29.95 in SSE 11.0 mph 13.0 mph 97% 0.00 in 165.00 W/m2
14:12 39.0 °F 38.2 °F 29.95 in South 12.0 mph 18.0 mph 97% 0.00 in 139.00 W/m2
14:17 39.2 °F 38.4 °F 29.95 in SSE 11.0 mph 16.0 mph 97% 0.00 in 102.00 W/m2
14:22 39.3 °F 38.5 °F 29.95 in SSW 5.0 mph 17.0 mph 97% 0.00 in 116.00 W/m2
14:27 39.2 °F 38.4 °F 29.95 in SSE 8.0 mph 12.0 mph 97% 0.00 in 63.00 W/m2
14:32 39.2 °F 38.4 °F 29.95 in South 12.0 mph 14.0 mph 97% 0.00 in 104.00 W/m2
14:37 39.2 °F 38.4 °F 29.95 in SSE 9.0 mph 11.0 mph 97% 0.00 in 58.00 W/m2
14:42 39.1 °F 38.3 °F 29.95 in South 13.0 mph 17.0 mph 97% 0.00 in 47.00 W/m2
14:47 39.0 °F 38.2 °F 29.95 in South 11.0 mph 16.0 mph 97% 0.00 in 53.00 W/m2
14:52 38.8 °F 38.0 °F 29.96 in SSE 11.0 mph 11.0 mph 97% 0.00 in 65.00 W/m2
14:57 38.8 °F 38.0 °F 29.96 in South 5.0 mph 8.0 mph 97% 0.00 in 65.00 W/m2
15:02 38.7 °F 37.9 °F 29.96 in SSE 15.0 mph 16.0 mph 97% 0.00 in 35.00 W/m2
15:07 38.6 °F 37.8 °F 29.97 in South 13.0 mph 13.0 mph 97% 0.21 in 39.00 W/m2
15:12 38.5 °F 37.7 °F 29.97 in South 14.0 mph 19.0 mph 97% 0.28 in 33.00 W/m2
15:17 38.2 °F 37.4 °F 29.97 in SSE 11.0 mph 18.0 mph 97% 0.17 in 30.00 W/m2
15:22 38.1 °F 37.3 °F 29.96 in SSE 7.0 mph 15.0 mph 97% 0.09 in 39.00 W/m2
15:27 38.0 °F 37.2 °F 29.96 in SSE 10.0 mph 11.0 mph 97% 0.09 in 47.00 W/m2
15:32 38.0 °F 37.2 °F 29.96 in SSE 5.0 mph 14.0 mph 97% 0.05 in 53.00 W/m2
15:37 38.0 °F 37.0 °F 29.97 in South 9.0 mph 14.0 mph 96% 0.04 in 42.00 W/m2
15:42 38.1 °F 37.1 °F 29.97 in SSE 8.0 mph 11.0 mph 96% 0.00 in 42.00 W/m2
15:47 38.2 °F 37.2 °F 29.97 in SE 12.0 mph 12.0 mph 96% 0.00 in 35.00 W/m2
15:52 38.2 °F 37.4 °F 29.97 in SSE 4.0 mph 11.0 mph 97% 0.00 in 21.00 W/m2
15:57 38.3 °F 37.5 °F 29.98 in SSE 6.0 mph 10.0 mph 97% 0.00 in 23.00 W/m2
16:02 38.3 °F 37.5 °F 29.98 in SSE 9.0 mph 10.0 mph 97% 0.00 in 25.00 W/m2
16:07 38.4 °F 37.6 °F 29.97 in SE 6.0 mph 9.0 mph 97% 0.00 in 23.00 W/m2
16:12 38.5 °F 37.7 °F 29.97 in Calm   11.0 mph 97% 0.00 in 12.00 W/m2
16:17 38.5 °F 37.7 °F 29.97 in Calm   14.0 mph 97% 0.00 in 14.00 W/m2
16:22 38.5 °F 37.7 °F 29.97 in SE 4.0 mph 8.0 mph 97% 0.00 in 19.00 W/m2
16:27 38.5 °F 37.7 °F 29.98 in SE 10.0 mph 15.0 mph 97% 0.00 in 16.00 W/m2
16:32 38.5 °F 37.7 °F 29.98 in SSE 5.0 mph 13.0 mph 97% 0.00 in 16.00 W/m2
16:37 38.5 °F 37.7 °F 29.98 in South 11.0 mph 12.0 mph 97% 0.00 in 14.00 W/m2
16:42 38.4 °F 37.6 °F 29.98 in SE 11.0 mph 15.0 mph 97% 0.00 in 12.00 W/m2
16:47 38.4 °F 37.6 °F 29.98 in SE 6.0 mph 13.0 mph 97% 0.00 in 9.00 W/m2
16:52 38.3 °F 37.5 °F 29.97 in SE 5.0 mph 12.0 mph 97% 0.00 in 9.00 W/m2
16:57 38.2 °F 37.4 °F 29.97 in SSE 10.0 mph 10.0 mph 97% 0.00 in 5.00 W/m2
17:02 38.2 °F 37.4 °F 29.98 in SSE 2.0 mph 13.0 mph 97% 0.00 in 5.00 W/m2
17:07 38.2 °F 37.4 °F 29.98 in SSE 6.0 mph 14.0 mph 97% 0.00 in 0.00 W/m2
17:13 38.1 °F 37.1 °F 29.98 in SSE 7.0 mph 12.0 mph 96% 0.00 in 0.00 W/m2
17:18 38.0 °F 37.0 °F 29.98 in SSE 7.0 mph 13.0 mph 96% 0.00 in 0.00 W/m2
17:23 38.0 °F 37.0 °F 29.98 in SE 4.0 mph 11.0 mph 96% 0.00 in 0.00 W/m2
17:28 37.9 °F 36.9 °F 29.98 in SSE 12.0 mph 14.0 mph 96% 0.00 in 0.00 W/m2
17:33 37.8 °F 37.0 °F 29.98 in Calm   11.0 mph 97% 0.00 in 0.00 W/m2
17:38 37.8 °F 37.0 °F 29.97 in SE 8.0 mph 20.0 mph 97% 0.00 in 0.00 W/m2
17:43 37.7 °F 36.9 °F 29.97 in SSE 6.0 mph 13.0 mph 97% 0.00 in 0.00 W/m2
17:48 37.7 °F 36.7 °F 29.97 in South 4.0 mph 14.0 mph 96% 0.00 in 0.00 W/m2
17:53 37.6 °F 36.6 °F 29.98 in SSE 8.0 mph 17.0 mph 96% 0.00 in 0.00 W/m2
17:58 37.6 °F 36.6 °F 29.98 in SE 15.0 mph 15.0 mph 96% 0.00 in 0.00 W/m2
18:03 37.5 °F 36.5 °F 29.98 in SE 7.0 mph 11.0 mph 96% 0.00 in 0.00 W/m2
18:08 37.5 °F 36.5 °F 29.97 in SSE 8.0 mph 15.0 mph 96% 0.00 in 0.00 W/m2
18:13 37.4 °F 36.4 °F 29.98 in SSE 10.0 mph 14.0 mph 96% 0.00 in 0.00 W/m2
18:18 37.4 °F 36.4 °F 29.98 in SSE 5.0 mph 16.0 mph 96% 0.00 in 0.00 W/m2
18:23 37.4 °F 36.4 °F 29.98 in SE 6.0 mph 14.0 mph 96% 0.00 in 0.00 W/m2
18:28 37.4 °F 36.4 °F 29.98 in SSE 10.0 mph 17.0 mph 96% 0.00 in 0.00 W/m2
18:33 37.3 °F 36.3 °F 29.98 in SSE 10.0 mph 16.0 mph 96% 0.00 in 0.00 W/m2
18:38 37.3 °F 36.3 °F 29.97 in SE 12.0 mph 12.0 mph 96% 0.00 in 0.00 W/m2
18:43 37.3 °F 36.3 °F 29.97 in SSE 7.0 mph 14.0 mph 96% 0.00 in 0.00 W/m2
18:48 37.3 °F 36.3 °F 29.97 in SSE 4.0 mph 16.0 mph 96% 0.00 in 0.00 W/m2
18:53 37.3 °F 36.3 °F 29.98 in SE 5.0 mph 17.0 mph 96% 0.00 in 0.00 W/m2
18:58 37.3 °F 36.3 °F 29.98 in SE 9.0 mph 15.0 mph 96% 0.00 in 0.00 W/m2
19:03 37.3 °F 36.3 °F 29.97 in SE 9.0 mph 17.0 mph 96% 0.00 in 0.00 W/m2
19:08 37.3 °F 36.3 °F 29.97 in SE 6.0 mph 15.0 mph 96% 0.00 in 0.00 W/m2
19:13 37.3 °F 36.3 °F 29.97 in SSE 8.0 mph 15.0 mph 96% 0.00 in 0.00 W/m2
19:18 37.3 °F 36.3 °F 29.97 in SE 12.0 mph 18.0 mph 96% 0.00 in 0.00 W/m2
19:23 37.3 °F 36.3 °F 29.96 in SE 7.0 mph 15.0 mph 96% 0.00 in 0.00 W/m2
19:28 37.2 °F 36.2 °F 29.97 in SE 12.0 mph 13.0 mph 96% 0.00 in 0.00 W/m2
19:33 37.2 °F 36.2 °F 29.97 in SE 12.0 mph 12.0 mph 96% 0.00 in 0.00 W/m2
19:38 37.2 °F 36.2 °F 29.98 in SSE 7.0 mph 15.0 mph 96% 0.00 in 0.00 W/m2
19:43 37.2 °F 36.2 °F 29.98 in SE 11.0 mph 23.0 mph 96% 0.00 in 0.00 W/m2
19:48 37.3 °F 36.3 °F 29.98 in South 8.0 mph 14.0 mph 96% 0.00 in 0.00 W/m2
19:53 37.3 °F 36.3 °F 29.98 in SSE 11.0 mph 16.0 mph 96% 0.00 in 0.00 W/m2
19:58 37.3 °F 36.3 °F 29.99 in SSE 5.0 mph 14.0 mph 96% 0.00 in 0.00 W/m2
20:03 37.3 °F 36.3 °F 29.99 in SSE 7.0 mph 13.0 mph 96% 0.00 in 0.00 W/m2
20:08 37.3 °F 36.3 °F 29.99 in South 13.0 mph 18.0 mph 96% 0.00 in 0.00 W/m2
20:13 37.3 °F 36.3 °F 29.99 in South 8.0 mph 18.0 mph 96% 0.00 in 0.00 W/m2
20:18 37.3 °F 36.3 °F 29.99 in SSE 10.0 mph 10.0 mph 96% 0.00 in 0.00 W/m2
20:23 37.3 °F 36.3 °F 29.99 in SE 5.0 mph 23.0 mph 96% 0.00 in 0.00 W/m2
20:28 37.3 °F 36.3 °F 29.99 in SSE 13.0 mph 15.0 mph 96% 0.00 in 0.00 W/m2
20:33 37.3 °F 36.3 °F 29.98 in SE 9.0 mph 20.0 mph 96% 0.00 in 0.00 W/m2
20:38 37.3 °F 36.3 °F 29.98 in SSE 13.0 mph 17.0 mph 96% 0.04 in 0.00 W/m2
20:43 37.3 °F 36.3 °F 29.98 in South 9.0 mph 19.0 mph 96% 0.04 in 0.00 W/m2
20:48 37.3 °F 36.3 °F 29.97 in South 13.0 mph 19.0 mph 96% 0.04 in 0.00 W/m2
20:53 37.2 °F 36.2 °F 29.97 in SE 14.0 mph 18.0 mph 96% 0.00 in 0.00 W/m2
20:58 37.2 °F 36.2 °F 29.97 in ESE 12.0 mph 15.0 mph 96% 0.00 in 0.00 W/m2
21:03 37.2 °F 36.2 °F 29.97 in SE 8.0 mph 18.0 mph 96% 0.00 in 0.00 W/m2
21:08 37.2 °F 36.2 °F 29.97 in SSE 11.0 mph 17.0 mph 96% 0.00 in 0.00 W/m2
21:13 37.2 °F 36.2 °F 29.97 in South 6.0 mph 17.0 mph 96% 0.00 in 0.00 W/m2
21:18 37.1 °F 36.1 °F 29.97 in SE 10.0 mph 20.0 mph 96% 0.00 in 0.00 W/m2
21:23 37.1 °F 36.1 °F 29.97 in SE 5.0 mph 15.0 mph 96% 0.00 in 0.00 W/m2
21:28 37.1 °F 36.1 °F 29.97 in SE 7.0 mph 22.0 mph 96% 0.00 in 0.00 W/m2
21:34 37.1 °F 36.1 °F 29.96 in SE 6.0 mph 16.0 mph 96% 0.00 in 0.00 W/m2
21:39 37.0 °F 36.0 °F 29.96 in SE 7.0 mph 15.0 mph 96% 0.00 in 0.00 W/m2
21:44 37.0 °F 36.0 °F 29.95 in ESE 14.0 mph 17.0 mph 96% 0.00 in 0.00 W/m2
21:49 37.0 °F 36.0 °F 29.94 in SSE 16.0 mph 16.0 mph 96% 0.00 in 0.00 W/m2
21:54 36.9 °F 35.9 °F 29.94 in SSE 10.0 mph 18.0 mph 96% 0.00 in 0.00 W/m2
21:59 36.9 °F 35.9 °F 29.94 in SE 9.0 mph 19.0 mph 96% 0.00 in 0.00 W/m2
22:04 36.9 °F 35.9 °F 29.93 in SE 9.0 mph 18.0 mph 96% 0.04 in 0.00 W/m2
22:09 36.9 °F 35.9 °F 29.94 in SE 6.0 mph 15.0 mph 96% 0.04 in 0.00 W/m2
22:14 36.9 °F 35.9 °F 29.94 in SE 4.0 mph 13.0 mph 96% 0.04 in 0.00 W/m2
22:19 36.9 °F 35.9 °F 29.93 in SE 9.0 mph 15.0 mph 96% 0.00 in 0.00 W/m2
22:24 36.8 °F 35.8 °F 29.93 in SE 7.0 mph 20.0 mph 96% 0.00 in 0.00 W/m2
22:29 36.9 °F 35.9 °F 29.93 in SE 9.0 mph 20.0 mph 96% 0.00 in 0.00 W/m2
22:34 36.9 °F 35.9 °F 29.93 in SSE 9.0 mph 21.0 mph 96% 0.00 in 0.00 W/m2
22:39 36.9 °F 35.9 °F 29.92 in SE 13.0 mph 15.0 mph 96% 0.00 in 0.00 W/m2
22:44 36.9 °F 35.9 °F 29.93 in SSE 2.0 mph 20.0 mph 96% 0.00 in 0.00 W/m2
22:49 36.9 °F 35.9 °F 29.93 in SSE 12.0 mph 15.0 mph 96% 0.00 in 0.00 W/m2
22:54 36.9 °F 35.9 °F 29.93 in South 7.0 mph 21.0 mph 96% 0.00 in 0.00 W/m2
22:59 36.9 °F 35.9 °F 29.92 in Calm   17.0 mph 96% 0.00 in 0.00 W/m2
23:04 36.9 °F 35.9 °F 29.92 in SE 11.0 mph 15.0 mph 96% 0.00 in 0.00 W/m2
23:09 36.9 °F 35.9 °F 29.92 in SE 8.0 mph 13.0 mph 96% 0.00 in 0.00 W/m2
23:14 36.8 °F 35.8 °F 29.92 in SE 19.0 mph 21.0 mph 96% 0.00 in 0.00 W/m2
23:19 36.8 °F 35.8 °F 29.92 in SSE 10.0 mph 19.0 mph 96% 0.00 in 0.00 W/m2
23:24 36.8 °F 35.8 °F 29.92 in SSE 5.0 mph 15.0 mph 96% 0.00 in 0.00 W/m2
23:29 36.8 °F 35.8 °F 29.92 in ESE 7.0 mph 20.0 mph 96% 0.00 in 0.00 W/m2
23:34 36.8 °F 35.8 °F 29.92 in SE 14.0 mph 20.0 mph 96% 0.07 in 0.00 W/m2
23:39 36.7 °F 35.7 °F 29.92 in South 20.0 mph 22.0 mph 96% 0.10 in 0.00 W/m2
23:44 36.6 °F 35.6 °F 29.92 in SSE 7.0 mph 20.0 mph 96% 0.10 in 0.00 W/m2
23:49 36.5 °F 35.5 °F 29.91 in South 11.0 mph 14.0 mph 96% 0.10 in 0.00 W/m2
23:54 36.4 °F 35.4 °F 29.91 in SE 8.0 mph 20.0 mph 96% 0.09 in 0.00 W/m2
23:59 36.3 °F 35.3 °F 29.90 in SE 13.0 mph 22.0 mph 96% 0.13 in 0.00 W/m2
Foresthill Weather
 WU-history PHP script courtesy of   Juneau County Weather.
powered by Cumulus v1.9.3 (1059)
Ambient Weather VWS v14.00
Top Contact Website Map Copyright © 2007 - 2018 Foresthillweather.com Never base important decisions on this or any weather information obtained from the Internet